createdAt,value
2023-04-05T00:00:36.649Z,2.46
2023-04-05T00:03:04.505Z,2.35
2023-04-05T00:05:34.492Z,2.23
2023-04-05T00:08:02.565Z,2.11
2023-04-05T00:10:30.563Z,2.03
2023-04-05T00:12:58.214Z,1.93
2023-04-05T00:15:25.814Z,1.85
2023-04-05T00:17:54.398Z,1.78
2023-04-05T00:20:22.133Z,1.72
2023-04-05T00:22:51.108Z,1.66
2023-04-05T00:25:18.973Z,1.60
2023-04-05T00:27:46.558Z,1.58
2023-04-05T00:30:20.827Z,1.56
2023-04-05T00:32:48.834Z,1.53
2023-04-05T00:35:16.843Z,1.49
2023-04-05T00:37:44.526Z,1.45
2023-04-05T00:40:12.144Z,1.43
2023-04-05T00:42:39.768Z,1.40
2023-04-05T00:45:07.422Z,1.38
2023-04-05T00:47:35.536Z,1.35
2023-04-05T00:50:03.156Z,1.29
2023-04-05T00:52:31.090Z,1.25
2023-04-05T00:54:58.793Z,1.19
2023-04-05T00:57:26.500Z,1.14
2023-04-05T00:59:54.185Z,1.08
2023-04-05T01:02:21.825Z,1.04
2023-04-05T01:04:50.403Z,1.00
2023-04-05T01:07:21.248Z,0.98
2023-04-05T01:09:49.143Z,0.96
2023-04-05T01:12:18.114Z,0.95
2023-04-05T01:14:45.798Z,0.94
2023-04-05T01:17:13.438Z,0.92
2023-04-05T01:19:42.301Z,0.92
2023-04-05T01:22:14.973Z,0.93
2023-04-05T01:24:42.940Z,0.93
2023-04-05T01:27:10.547Z,0.91
2023-04-05T01:29:38.705Z,0.88
2023-04-05T01:32:06.349Z,0.85
2023-04-05T01:34:34.340Z,0.83
2023-04-05T01:37:02.333Z,0.80
2023-04-05T01:39:29.956Z,0.77
2023-04-05T01:41:57.625Z,0.75
2023-04-05T01:44:25.299Z,0.73
2023-04-05T01:46:52.959Z,0.69
2023-04-05T01:49:20.918Z,0.68
2023-04-05T01:51:48.865Z,0.69
2023-04-05T01:54:16.505Z,0.66
2023-04-05T01:56:44.090Z,0.62
2023-04-05T01:59:11.990Z,0.57
2023-04-05T02:01:40.070Z,0.53
2023-04-05T02:04:07.652Z,0.48
2023-04-05T02:06:35.313Z,0.46
2023-04-05T02:09:02.936Z,0.43
2023-04-05T02:11:30.600Z,0.41
2023-04-05T02:13:58.576Z,0.39
2023-04-05T02:16:27.316Z,0.39
2023-04-05T02:18:57.993Z,0.37
2023-04-05T02:21:26.300Z,0.33
2023-04-05T02:23:54.044Z,0.30
2023-04-05T02:26:22.094Z,0.25
2023-04-05T02:28:49.726Z,0.21
2023-04-05T02:31:17.318Z,0.19
2023-04-05T02:33:44.930Z,0.16
2023-04-05T02:36:14.161Z,0.14
2023-04-05T02:38:42.483Z,0.11
2023-04-05T02:41:10.072Z,0.10
2023-04-05T02:43:37.678Z,0.07
2023-04-05T02:46:05.404Z,0.05
2023-04-05T02:48:33.014Z,0.05
2023-04-05T02:51:00.721Z,0.05
2023-04-05T02:53:28.439Z,0.04
2023-04-05T02:55:57.014Z,0.03
2023-04-05T02:58:25.212Z,0.03
2023-04-05T03:00:54.499Z,0.00
2023-04-05T03:03:22.578Z,-0.02
2023-04-05T03:05:50.217Z,-0.02
2023-04-05T03:08:20.013Z,-0.05
2023-04-05T03:10:47.691Z,-0.05
2023-04-05T03:13:15.585Z,-0.06
2023-04-05T03:15:43.554Z,-0.06
2023-04-05T03:18:11.292Z,-0.07
2023-04-05T03:20:40.399Z,-0.08
2023-04-05T03:23:09.061Z,-0.10
2023-04-05T03:25:37.593Z,-0.14
2023-04-05T03:28:06.130Z,-0.17
2023-04-05T03:30:33.873Z,-0.19
2023-04-05T03:33:03.095Z,-0.22
2023-04-05T03:35:31.020Z,-0.24
2023-04-05T03:37:58.675Z,-0.26
2023-04-05T03:40:26.268Z,-0.25
2023-04-05T03:42:53.910Z,-0.24
2023-04-05T03:45:24.328Z,-0.29
2023-04-05T03:47:52.296Z,-0.34
2023-04-05T03:50:20.037Z,-0.36
2023-04-05T03:52:48.023Z,-0.38
2023-04-05T03:55:16.976Z,-0.41
2023-04-05T03:57:44.588Z,-0.43
2023-04-05T04:00:14.498Z,-0.45
2023-04-05T04:02:42.186Z,-0.48
2023-04-05T04:05:10.616Z,-0.52
2023-04-05T04:07:38.284Z,-0.55
2023-04-05T04:10:05.903Z,-0.57
2023-04-05T04:12:33.524Z,-0.60
2023-04-05T04:15:01.140Z,-0.61
2023-04-05T04:17:29.111Z,-0.60
2023-04-05T04:19:56.769Z,-0.56
2023-04-05T04:22:26.779Z,-0.56
2023-04-05T04:24:55.403Z,-0.60
2023-04-05T04:27:26.162Z,-0.65
2023-04-05T04:30:02.005Z,-0.68
2023-04-05T04:32:47.804Z,-0.72
2023-04-05T04:35:18.489Z,-0.78
2023-04-05T04:37:46.912Z,-0.84
2023-04-05T04:40:17.676Z,-0.86
2023-04-05T04:42:46.993Z,-0.90
2023-04-05T04:45:16.268Z,-0.93
2023-04-05T04:47:44.487Z,-0.93
2023-04-05T04:50:12.329Z,-0.93
2023-04-05T04:52:39.901Z,-0.93
2023-04-05T04:55:07.600Z,-0.93
2023-04-05T04:57:35.224Z,-0.91
2023-04-05T05:00:04.570Z,-0.90
2023-04-05T05:02:32.506Z,-0.88
2023-04-05T05:05:00.512Z,-0.88
2023-04-05T05:07:28.089Z,-0.85
2023-04-05T05:09:56.178Z,-0.82
2023-04-05T05:12:23.811Z,-0.80
2023-04-05T05:14:51.579Z,-0.77
2023-04-05T05:17:19.644Z,-0.74
2023-04-05T05:19:47.241Z,-0.71
2023-04-05T05:22:14.863Z,-0.68
2023-04-05T05:24:42.738Z,-0.65
2023-04-05T05:27:10.384Z,-0.65
2023-04-05T05:29:38.384Z,-0.62
2023-04-05T05:32:06.101Z,-0.58
2023-04-05T05:34:33.769Z,-0.53
2023-04-05T05:37:01.757Z,-0.49
2023-04-05T05:39:29.470Z,-0.42
2023-04-05T05:41:57.611Z,-0.35
2023-04-05T05:44:25.200Z,-0.29
2023-04-05T05:46:52.919Z,-0.25
2023-04-05T05:49:20.847Z,-0.18
2023-04-05T05:51:50.034Z,-0.10
2023-04-05T05:54:18.113Z,-0.03
2023-04-05T05:56:45.826Z,0.06
2023-04-05T05:59:13.850Z,0.19
2023-04-05T06:01:42.928Z,0.37
2023-04-05T06:04:10.656Z,0.54
2023-04-05T06:06:38.703Z,0.68
2023-04-05T06:09:06.454Z,0.85
2023-04-05T06:11:35.451Z,0.95
2023-04-05T06:14:04.553Z,1.05
2023-04-05T06:16:32.621Z,1.15
2023-04-05T06:19:00.856Z,1.20
2023-04-05T06:21:28.598Z,1.30
2023-04-05T06:23:56.959Z,1.37
2023-04-05T06:26:27.250Z,1.45
2023-04-05T06:28:55.869Z,1.51
2023-04-05T06:31:23.933Z,1.58
2023-04-05T06:33:51.617Z,1.73
2023-04-05T06:36:19.652Z,1.87
2023-04-05T06:38:47.437Z,2.00
2023-04-05T06:41:15.112Z,2.18
2023-04-05T06:43:43.225Z,2.38
2023-04-05T06:46:12.867Z,2.54
2023-04-05T06:48:40.546Z,2.71
2023-04-05T06:51:08.255Z,2.86
2023-04-05T06:53:36.310Z,3.00
2023-04-05T06:56:04.525Z,3.12
2023-04-05T06:58:32.635Z,3.25
2023-04-05T07:01:00.548Z,3.38
2023-04-05T07:03:28.350Z,3.57
2023-04-05T07:05:57.141Z,3.72
2023-04-05T07:08:25.412Z,3.90
2023-04-05T07:10:53.212Z,4.04
2023-04-05T07:13:21.132Z,4.17
2023-04-05T07:15:48.980Z,4.30
2023-04-05T07:18:17.203Z,4.47
2023-04-05T07:20:45.510Z,4.63
2023-04-05T07:23:13.381Z,4.79
2023-04-05T07:25:41.145Z,4.94
2023-04-05T07:28:08.982Z,5.08
2023-04-05T07:30:37.165Z,5.22
2023-04-05T07:33:05.396Z,5.37
2023-04-05T07:35:33.394Z,5.53
2023-04-05T07:38:01.479Z,5.67
2023-04-05T07:40:29.184Z,5.84
2023-04-05T07:42:57.175Z,5.94
2023-04-05T07:45:25.323Z,6.09
2023-04-05T07:47:53.015Z,6.21
2023-04-05T07:50:20.841Z,6.34
2023-04-05T07:52:48.713Z,6.49
2023-04-05T07:55:17.351Z,6.63
2023-04-05T07:57:45.058Z,6.76
2023-04-05T08:00:13.622Z,6.85
2023-04-05T08:02:41.544Z,7.01
2023-04-05T08:05:09.691Z,7.14
2023-04-05T08:07:37.836Z,7.25
2023-04-05T08:10:07.002Z,7.39
2023-04-05T08:12:35.726Z,7.55
2023-04-05T08:15:04.894Z,7.70
2023-04-05T08:17:32.620Z,7.84
2023-04-05T08:20:00.841Z,7.96
2023-04-05T08:22:29.233Z,8.08
2023-04-05T08:24:57.035Z,8.17
2023-04-05T08:27:25.186Z,8.25
2023-04-05T08:29:53.070Z,8.34
2023-04-05T08:32:20.871Z,8.39
2023-04-05T08:34:48.882Z,8.46
2023-04-05T08:37:16.778Z,8.60
2023-04-05T08:39:44.485Z,8.76
2023-04-05T08:42:12.389Z,8.93
2023-04-05T08:44:40.464Z,9.08
2023-04-05T08:47:08.682Z,9.18
2023-04-05T08:49:36.818Z,9.25
2023-04-05T08:52:04.814Z,9.33
2023-04-05T08:54:32.588Z,9.45
2023-04-05T08:57:01.493Z,9.56
2023-04-05T08:59:29.888Z,9.69
2023-04-05T09:01:58.718Z,9.83
2023-04-05T09:04:28.489Z,9.99
2023-04-05T09:06:56.419Z,10.14
2023-04-05T09:09:24.665Z,10.36
2023-04-05T09:11:52.836Z,10.60
2023-04-05T09:14:21.046Z,10.87
2023-04-05T09:16:49.004Z,11.10
2023-04-05T09:19:17.945Z,11.31
2023-04-05T09:21:45.912Z,11.45
2023-04-05T09:24:13.725Z,11.64
2023-04-05T09:26:41.584Z,11.89
2023-04-05T09:29:09.560Z,12.22
2023-04-05T09:31:37.422Z,12.54
2023-04-05T09:34:05.658Z,12.76
2023-04-05T09:36:33.990Z,12.79
2023-04-05T09:39:01.724Z,12.73
2023-04-05T09:41:29.681Z,12.50
2023-04-05T09:43:57.608Z,12.28
2023-04-05T09:46:25.623Z,12.15
2023-04-05T09:48:53.503Z,11.98
2023-04-05T09:51:21.900Z,11.93
2023-04-05T09:53:49.842Z,12.01
2023-04-05T09:56:17.650Z,12.18
2023-04-05T09:58:45.883Z,12.61
2023-04-05T10:01:17.145Z,13.25
2023-04-05T10:03:45.456Z,14.08
2023-04-05T10:06:13.435Z,15.00
2023-04-05T10:08:41.184Z,15.87
2023-04-05T10:11:09.229Z,16.52
2023-04-05T10:13:37.339Z,17.02
2023-04-05T10:16:05.174Z,17.59
2023-04-05T10:18:34.443Z,18.02
2023-04-05T10:21:02.304Z,18.52
2023-04-05T10:23:30.781Z,18.88
2023-04-05T10:25:59.597Z,19.27
2023-04-05T10:28:28.374Z,19.52
2023-04-05T10:30:57.128Z,19.63
2023-04-05T10:33:25.181Z,19.91
2023-04-05T10:35:55.462Z,20.32
2023-04-05T10:38:23.876Z,20.35
2023-04-05T10:40:51.677Z,20.49
2023-04-05T10:43:19.664Z,20.75
2023-04-05T10:45:47.558Z,21.19
2023-04-05T10:48:15.937Z,21.64
2023-04-05T10:50:44.429Z,21.87
2023-04-05T10:53:12.529Z,22.18
2023-04-05T10:55:40.341Z,22.31
2023-04-05T10:58:08.857Z,22.47
2023-04-05T11:00:37.327Z,22.73
2023-04-05T11:03:05.539Z,23.04
2023-04-05T11:05:34.558Z,23.26
2023-04-05T11:08:02.367Z,23.59
2023-04-05T11:10:30.193Z,23.82
2023-04-05T11:12:58.419Z,24.06
2023-04-05T11:15:28.144Z,24.35
2023-04-05T11:17:55.927Z,24.56
2023-04-05T11:20:24.411Z,24.73
2023-04-05T11:22:52.242Z,24.70
2023-04-05T11:25:20.220Z,24.69
2023-04-05T11:27:49.532Z,24.80
2023-04-05T11:30:17.352Z,24.65
2023-04-05T11:32:45.173Z,24.60
2023-04-05T11:35:13.172Z,24.69
2023-04-05T11:37:40.943Z,24.55
2023-04-05T11:40:09.181Z,24.45
2023-04-05T11:42:37.185Z,24.53
2023-04-05T11:45:05.030Z,24.73
2023-04-05T11:47:32.959Z,24.65
2023-04-05T11:50:01.509Z,24.66
2023-04-05T11:52:29.695Z,24.87
2023-04-05T11:54:57.521Z,24.86
2023-04-05T11:57:25.542Z,24.92
2023-04-05T11:59:53.571Z,25.00
2023-04-05T12:02:21.672Z,25.22
2023-04-05T12:04:50.744Z,25.39
2023-04-05T12:07:18.471Z,25.63
2023-04-05T12:09:46.700Z,25.78
2023-04-05T12:12:14.640Z,25.70
2023-04-05T12:14:42.691Z,25.63
2023-04-05T12:17:10.834Z,25.48
2023-04-05T12:19:38.810Z,25.42
2023-04-05T12:22:06.777Z,25.32
2023-04-05T12:24:34.579Z,25.33
2023-04-05T12:27:03.805Z,25.23
2023-04-05T12:29:32.009Z,25.09
2023-04-05T12:32:00.259Z,24.94
2023-04-05T12:34:29.810Z,25.05
2023-04-05T12:36:57.529Z,25.07
2023-04-05T12:39:25.568Z,24.97
2023-04-05T12:41:53.914Z,24.52
2023-04-05T12:44:21.688Z,24.31
2023-04-05T12:46:49.519Z,24.03
2023-04-05T12:49:17.841Z,23.78
2023-04-05T12:51:46.414Z,23.34
2023-04-05T12:54:15.306Z,22.79
2023-04-05T12:56:46.532Z,22.42
2023-04-05T12:59:14.282Z,21.47
2023-04-05T13:01:42.312Z,20.73
2023-04-05T13:04:16.171Z,20.48
2023-04-05T13:06:44.987Z,20.17
2023-04-05T13:09:12.838Z,19.77
2023-04-05T13:11:40.783Z,19.28
2023-04-05T13:14:08.813Z,18.83
2023-04-05T13:16:36.870Z,18.10
2023-04-05T13:19:05.513Z,17.68
2023-04-05T13:21:33.221Z,17.50
2023-04-05T13:24:01.322Z,17.60
2023-04-05T13:26:29.081Z,17.78
2023-04-05T13:28:57.428Z,17.93
2023-04-05T13:31:25.771Z,18.00
2023-04-05T13:33:53.641Z,17.97
2023-04-05T13:36:21.543Z,17.82
2023-04-05T13:38:49.473Z,17.43
2023-04-05T13:41:17.455Z,17.01
2023-04-05T13:43:45.539Z,17.12
2023-04-05T13:46:13.376Z,17.47
2023-04-05T13:48:41.295Z,17.75
2023-04-05T13:51:09.520Z,18.04
2023-04-05T13:53:37.540Z,18.16
2023-04-05T13:56:06.970Z,18.27
2023-04-05T13:58:34.715Z,18.35
2023-04-05T14:01:02.893Z,18.48
2023-04-05T14:03:30.892Z,18.62
2023-04-05T14:05:59.148Z,18.78
2023-04-05T14:08:27.780Z,18.90
2023-04-05T14:10:55.658Z,18.98
2023-04-05T14:13:23.697Z,18.91
2023-04-05T14:15:51.721Z,18.81
2023-04-05T14:18:20.264Z,18.86
2023-04-05T14:20:48.395Z,19.05
2023-04-05T14:23:16.268Z,19.26
2023-04-05T14:25:44.158Z,19.52
2023-04-05T14:28:12.197Z,19.80
2023-04-05T14:30:40.641Z,20.02
2023-04-05T14:33:09.246Z,20.18
2023-04-05T14:35:38.235Z,20.17
2023-04-05T14:38:06.457Z,20.12
2023-04-05T14:40:34.423Z,20.33
2023-04-05T14:43:02.699Z,20.54
2023-04-05T14:45:31.121Z,20.68
2023-04-05T14:47:59.261Z,20.48
2023-04-05T14:50:27.267Z,20.23
2023-04-05T14:52:55.142Z,20.06
2023-04-05T14:55:23.160Z,20.06
2023-04-05T14:57:51.558Z,20.16
2023-04-05T15:00:19.627Z,20.30
2023-04-05T15:02:47.637Z,20.39
2023-04-05T15:05:15.761Z,20.61
2023-04-05T15:07:43.898Z,20.97
2023-04-05T15:10:12.448Z,21.34
2023-04-05T15:12:40.614Z,21.54
2023-04-05T15:15:08.650Z,21.61
2023-04-05T15:17:36.751Z,21.71
2023-04-05T15:20:06.393Z,21.77
2023-04-05T15:22:34.904Z,21.85
2023-04-05T15:25:02.738Z,22.10
2023-04-05T15:27:30.556Z,22.32
2023-04-05T15:29:58.611Z,22.52
2023-04-05T15:32:26.719Z,22.67
2023-04-05T15:34:54.983Z,22.80
2023-04-05T15:37:23.196Z,22.93
2023-04-05T15:39:51.062Z,22.98
2023-04-05T15:42:21.050Z,22.93
2023-04-05T15:44:48.964Z,22.90
2023-04-05T15:47:17.370Z,22.71
2023-04-05T15:49:45.392Z,22.60
2023-04-05T15:52:13.464Z,22.68
2023-04-05T15:54:41.800Z,22.78
2023-04-05T15:57:10.573Z,22.91
2023-04-05T15:59:39.162Z,23.02
2023-04-05T16:02:07.618Z,23.07
2023-04-05T16:04:35.706Z,23.09
2023-04-05T16:07:03.903Z,22.77
2023-04-05T16:09:32.521Z,21.42
2023-04-05T16:12:01.586Z,20.02
2023-04-05T16:14:29.556Z,18.80
2023-04-05T16:16:57.582Z,17.73
2023-04-05T16:19:25.831Z,16.78
2023-04-05T16:21:55.153Z,16.04
2023-04-05T16:24:23.973Z,15.41
2023-04-05T16:26:52.005Z,14.86
2023-04-05T16:29:19.858Z,14.43
2023-04-05T16:31:48.310Z,14.05
2023-04-05T16:34:16.584Z,13.72
2023-04-05T16:36:45.049Z,13.42
2023-04-05T16:39:13.055Z,13.17
2023-04-05T16:41:41.019Z,12.93
2023-04-05T16:44:08.921Z,12.71
2023-04-05T16:46:41.618Z,12.50
2023-04-05T16:49:09.998Z,12.32
2023-04-05T16:51:38.304Z,12.17
2023-04-05T16:54:06.177Z,12.01
2023-04-05T16:56:34.736Z,11.89
2023-04-05T16:59:05.038Z,11.75
2023-04-05T17:01:35.081Z,11.64
2023-04-05T17:04:03.060Z,11.53
2023-04-05T17:06:32.074Z,11.43
2023-04-05T17:08:59.974Z,11.33
2023-04-05T17:11:28.674Z,11.24
2023-04-05T17:13:56.883Z,11.15
2023-04-05T17:16:25.557Z,11.04
2023-04-05T17:18:53.656Z,10.96
2023-04-05T17:21:21.534Z,10.86
2023-04-05T17:23:50.190Z,10.77
2023-04-05T17:26:18.554Z,10.69
2023-04-05T17:28:46.848Z,10.59
2023-04-05T17:31:14.705Z,10.51
2023-04-05T17:33:42.975Z,10.43
2023-04-05T17:36:10.863Z,10.35
2023-04-05T17:38:39.103Z,10.26
2023-04-05T17:41:07.465Z,10.18
2023-04-05T17:43:35.981Z,10.10
2023-04-05T17:46:03.972Z,10.00
2023-04-05T17:48:33.160Z,9.91
2023-04-05T17:51:01.544Z,9.82
2023-04-05T17:53:29.473Z,9.71
2023-04-05T17:55:57.413Z,9.59
2023-04-05T17:58:25.291Z,9.46
2023-04-05T18:00:53.637Z,9.33
2023-04-05T18:03:22.479Z,9.22
2023-04-05T18:05:50.349Z,9.09
2023-04-05T18:08:18.304Z,8.98
2023-04-05T18:10:46.323Z,8.85
2023-04-05T18:13:14.578Z,8.76
2023-04-05T18:15:43.347Z,8.66
2023-04-05T18:18:11.390Z,8.54
2023-04-05T18:20:40.713Z,8.44
2023-04-05T18:23:08.609Z,8.35
2023-04-05T18:25:36.599Z,8.26
2023-04-05T18:28:12.338Z,8.16
2023-04-05T18:30:50.831Z,8.05
2023-04-05T18:33:19.056Z,7.96
2023-04-05T18:35:47.575Z,7.88
2023-04-05T18:38:16.025Z,7.79
2023-04-05T18:40:44.433Z,7.72
2023-04-05T18:43:12.407Z,7.64
2023-04-05T18:45:40.566Z,7.57
2023-04-05T18:48:08.536Z,7.49
2023-04-05T18:50:36.905Z,7.43
2023-04-05T18:53:07.081Z,7.36
2023-04-05T18:55:35.394Z,7.27
2023-04-05T18:58:03.974Z,7.21
2023-04-05T19:00:32.097Z,7.14
2023-04-05T19:03:00.552Z,7.08
2023-04-05T19:05:28.450Z,7.01
2023-04-05T19:07:56.302Z,6.94
2023-04-05T19:10:24.154Z,6.87
2023-04-05T19:12:52.358Z,6.80
2023-04-05T19:15:20.699Z,6.72
2023-04-05T19:17:49.015Z,6.63
2023-04-05T19:20:17.019Z,6.56
2023-04-05T19:22:45.021Z,6.49
2023-04-05T19:25:13.402Z,6.42
2023-04-05T19:27:41.924Z,6.35
2023-04-05T19:30:10.016Z,6.29
2023-04-05T19:32:37.946Z,6.22
2023-04-05T19:35:07.131Z,6.16
2023-04-05T19:37:35.125Z,6.09
2023-04-05T19:40:04.489Z,6.03
2023-04-05T19:42:34.536Z,5.98
2023-04-05T19:45:03.155Z,5.92
2023-04-05T19:47:31.653Z,5.88
2023-04-05T19:50:00.997Z,5.83
2023-04-05T19:52:29.542Z,5.76
2023-04-05T19:54:57.472Z,5.68
2023-04-05T19:57:25.404Z,5.60
2023-04-05T19:59:53.477Z,5.50
2023-04-05T20:02:23.439Z,5.40
2023-04-05T20:04:51.599Z,5.34
2023-04-05T20:07:19.586Z,5.29
2023-04-05T20:09:47.489Z,5.27
2023-04-05T20:12:16.029Z,5.21
2023-04-05T20:14:44.083Z,5.14
2023-04-05T20:17:12.634Z,5.04
2023-04-05T20:19:40.587Z,4.96
2023-04-05T20:22:08.615Z,4.90
2023-04-05T20:24:37.057Z,4.84
2023-04-05T20:27:05.188Z,4.77
2023-04-05T20:29:33.802Z,4.72
2023-04-05T20:32:01.934Z,4.67
2023-04-05T20:34:29.883Z,4.63
2023-04-05T20:36:58.412Z,4.59
2023-04-05T20:39:26.847Z,4.55
2023-04-05T20:41:56.527Z,4.45
2023-04-05T20:44:24.460Z,4.35
2023-04-05T20:46:54.232Z,4.26
2023-04-05T20:49:22.420Z,4.20
2023-04-05T20:51:50.951Z,4.14
2023-04-05T20:54:20.183Z,4.07
2023-04-05T20:56:48.068Z,4.00
2023-04-05T20:59:16.121Z,3.94
2023-04-05T21:01:44.116Z,3.89
2023-04-05T21:04:12.184Z,3.83
2023-04-05T21:06:40.532Z,3.77
2023-04-05T21:09:09.071Z,3.71
2023-04-05T21:11:37.557Z,3.68
2023-04-05T21:14:05.642Z,3.65
2023-04-05T21:16:33.527Z,3.65
2023-04-05T21:19:01.769Z,3.67
2023-04-05T21:21:29.821Z,3.71
2023-04-05T21:23:57.683Z,3.75
2023-04-05T21:26:25.799Z,3.78
2023-04-05T21:28:54.030Z,3.79
2023-04-05T21:31:22.163Z,3.79
2023-04-05T21:33:50.059Z,3.79
2023-04-05T21:36:17.951Z,3.78
2023-04-05T21:38:45.767Z,3.73
2023-04-05T21:41:13.630Z,3.68
2023-04-05T21:43:41.814Z,3.62
2023-04-05T21:46:09.649Z,3.56
2023-04-05T21:48:37.527Z,3.49
2023-04-05T21:51:05.768Z,3.44
2023-04-05T21:53:33.751Z,3.37
2023-04-05T21:56:02.454Z,3.32
2023-04-05T21:58:30.745Z,3.28
2023-04-05T22:00:59.843Z,3.24
2023-04-05T22:03:27.657Z,3.18
2023-04-05T22:05:55.587Z,3.13
2023-04-05T22:08:23.570Z,3.11
2023-04-05T22:10:51.436Z,3.05
2023-04-05T22:13:19.437Z,3.01
2023-04-05T22:15:47.368Z,2.96
2023-04-05T22:18:15.306Z,2.91
2023-04-05T22:20:43.448Z,2.84
2023-04-05T22:23:11.191Z,2.77
2023-04-05T22:25:39.058Z,2.70
2023-04-05T22:28:06.830Z,2.61
2023-04-05T22:30:43.647Z,2.54
2023-04-05T22:33:13.326Z,2.47
2023-04-05T22:35:41.313Z,2.42
2023-04-05T22:38:09.110Z,2.38
2023-04-05T22:40:37.155Z,2.35
2023-04-05T22:43:04.921Z,2.33
2023-04-05T22:45:32.688Z,2.32
2023-04-05T22:48:00.675Z,2.29
2023-04-05T22:50:28.533Z,2.26
2023-04-05T22:52:56.319Z,2.24
2023-04-05T22:55:24.416Z,2.24
2023-04-05T22:57:52.548Z,2.24
2023-04-05T23:00:20.370Z,2.20
2023-04-05T23:02:48.297Z,2.16
2023-04-05T23:05:16.320Z,2.09
2023-04-05T23:07:43.987Z,2.01
2023-04-05T23:10:12.128Z,1.94
2023-04-05T23:12:39.785Z,1.88
2023-04-05T23:15:07.515Z,1.82
2023-04-05T23:17:36.906Z,1.77
2023-04-05T23:20:06.001Z,1.74
2023-04-05T23:22:34.020Z,1.70
2023-04-05T23:25:02.677Z,1.70
2023-04-05T23:27:30.365Z,1.71
2023-04-05T23:29:58.053Z,1.73
2023-04-05T23:32:25.830Z,1.75
2023-04-05T23:34:53.866Z,1.80
2023-04-05T23:37:21.530Z,1.81
2023-04-05T23:39:49.538Z,1.82
2023-04-05T23:42:18.020Z,1.81
2023-04-05T23:44:45.688Z,1.80
2023-04-05T23:47:13.816Z,1.76
2023-04-05T23:49:41.700Z,1.72
2023-04-05T23:52:09.362Z,1.69
2023-04-05T23:54:37.281Z,1.67
2023-04-05T23:57:04.931Z,1.66
2023-04-05T23:59:32.972Z,1.69
